^^
Your Local Weather - Clay, NY Station Historical Data
Daily Summary for January 11, 2018 Units:  English    Metric   Both
« Previous Day
Next Day »
Daily Weekly Monthly Yearly Custom
  High: Low: Average:
Temperature: 54.5 °F 38.0 °F 48.3 °F
Dew Point: 48.5 °F 29.8 °F 39.5 °F
Humidity: 88% 61% 72%
Wind Speed: 9.0mph 0.0mph 2.8mph
Wind Gust: 16.0mph - -
Wind- - South
Pressure: 30.14 in 29.90 in -
Precipitation: 0.08 in    
Historical Graphs
 
 
Tabular Data for January 11, 2018
Time Temperature Dew Point Pressure Wind Wind Speed Wind Gust Humidity Rainfall Rate (Hourly) solar
00:03 40.4 °F 29.9 °F 30.13 in South 2.0 mph 2.0 mph 66% 0.00 in 0 W/m2
00:12 40.3 °F 30.2 °F 30.14 in South 1.0 mph 1.0 mph 67% 0.00 in 0 W/m2
00:18 39.9 °F 29.8 °F 30.14 in Calm   1.0 mph 67% 0.00 in 0 W/m2
00:24 39.4 °F 30.1 °F 30.13 in Calm     69% 0.00 in 0 W/m2
00:29 38.8 °F 29.8 °F 30.13 in Calm     70% 0.00 in 0 W/m2
00:46 38.7 °F 30.1 °F 30.13 in Calm     71% 0.00 in 0 W/m2
00:52 38.9 °F 29.9 °F 30.13 in Calm     70% 0.00 in 0 W/m2
01:14 39.0 °F 30.0 °F 30.13 in Calm   1.0 mph 70% 0.00 in 0 W/m2
01:19 38.9 °F 30.3 °F 30.13 in Calm     71% 0.00 in 0 W/m2
01:26 38.9 °F 30.3 °F 30.13 in Calm   1.0 mph 71% 0.00 in 0 W/m2
01:32 38.8 °F 30.2 °F 30.13 in Calm     71% 0.00 in 0 W/m2
01:38 38.8 °F 30.2 °F 30.13 in Calm   1.0 mph 71% 0.00 in 0 W/m2
01:43 38.7 °F 30.4 °F 30.13 in Calm   2.0 mph 72% 0.00 in 0 W/m2
01:49 39.0 °F 30.4 °F 30.13 in South 1.0 mph 1.0 mph 71% 0.00 in 0 W/m2
01:58 39.2 °F 30.6 °F 30.13 in South 1.0 mph 1.0 mph 71% 0.00 in 0 W/m2
02:04 39.1 °F 30.5 °F 30.14 in Calm     71% 0.00 in 0 W/m2
02:09 38.9 °F 30.3 °F 30.14 in Calm     71% 0.00 in 0 W/m2
02:22 39.5 °F 30.5 °F 30.14 in Calm     70% 0.00 in 0 W/m2
02:28 40.0 °F 31.0 °F 30.13 in SSE 1.0 mph 4.0 mph 70% 0.00 in 0 W/m2
02:34 40.2 °F 30.8 °F 30.13 in SSE 2.0 mph 3.0 mph 69% 0.00 in 0 W/m2
02:40 40.2 °F 30.8 °F 30.13 in SSE 1.0 mph 1.0 mph 69% 0.00 in 0 W/m2
02:45 40.2 °F 30.8 °F 30.13 in SSE 1.0 mph 1.0 mph 69% 0.00 in 0 W/m2
02:52 39.7 °F 30.7 °F 30.13 in SSE 1.0 mph 1.0 mph 70% 0.00 in 0 W/m2
02:58 40.1 °F 31.1 °F 30.13 in Calm   2.0 mph 70% 0.00 in 0 W/m2
03:04 40.3 °F 31.3 °F 30.12 in SSE 1.0 mph 1.0 mph 70% 0.00 in 0 W/m2
03:16 41.5 °F 32.1 °F 30.11 in SSE 3.0 mph 3.0 mph 69% 0.00 in 0 W/m2
03:22 41.8 °F 32.0 °F 30.11 in SE 2.0 mph 3.0 mph 68% 0.00 in 0 W/m2
03:28 41.6 °F 31.8 °F 30.11 in SSE 2.0 mph 5.0 mph 68% 0.00 in 0 W/m2
03:36 41.7 °F 31.9 °F 30.11 in SSE 2.0 mph 2.0 mph 68% 0.00 in 0 W/m2
03:43 41.8 °F 32.0 °F 30.11 in South 2.0 mph 3.0 mph 68% 0.00 in 0 W/m2
03:50 42.3 °F 32.1 °F 30.11 in SSW 3.0 mph 3.0 mph 67% 0.00 in 0 W/m2
03:55 42.7 °F 32.1 °F 30.11 in SSE 3.0 mph 3.0 mph 66% 0.00 in 0 W/m2
04:02 42.6 °F 32.0 °F 30.11 in SSW 2.0 mph 4.0 mph 66% 0.00 in 0 W/m2
04:08 42.6 °F 32.0 °F 30.11 in SSW 2.0 mph 4.0 mph 66% 0.00 in 0 W/m2
04:14 42.7 °F 32.1 °F 30.13 in SSW 2.0 mph 2.0 mph 66% 0.00 in 0 W/m2
04:19 42.7 °F 32.1 °F 30.12 in SSW 1.0 mph 1.0 mph 66% 0.00 in 0 W/m2
04:26 42.1 °F 31.9 °F 30.12 in Calm   1.0 mph 67% 0.00 in 0 W/m2
04:32 41.4 °F 31.6 °F 30.12 in SSW 1.0 mph 2.0 mph 68% 0.00 in 0 W/m2
04:38 41.3 °F 31.9 °F 30.12 in SSW 1.0 mph 2.0 mph 69% 0.00 in 0 W/m2
04:43 40.9 °F 32.2 °F 30.13 in SSW 1.0 mph 1.0 mph 71% 0.00 in 0 W/m2
04:49 40.5 °F 32.9 °F 30.13 in Calm     74% 0.00 in 0 W/m2
04:56 39.2 °F 32.3 °F 30.12 in Calm   2.0 mph 76% 0.00 in 0 W/m2
05:08 40.1 °F 34.4 °F 30.12 in SE 2.0 mph 3.0 mph 80% 0.00 in 0 W/m2
05:13 40.3 °F 34.3 °F 30.13 in SE 2.0 mph 3.0 mph 79% 0.00 in 0 W/m2
05:20 40.5 °F 33.9 °F 30.13 in SE 1.0 mph 1.0 mph 77% 0.00 in 0 W/m2
05:35 40.3 °F 34.0 °F 30.12 in SE 3.0 mph 3.0 mph 78% 0.00 in 0 W/m2
05:42 40.4 °F 33.8 °F 30.12 in SE 1.0 mph 2.0 mph 77% 0.00 in 0 W/m2
05:48 40.3 °F 33.7 °F 30.11 in SE 1.0 mph 5.0 mph 77% 0.00 in 0 W/m2
05:54 40.9 °F 33.9 °F 30.13 in SSE 1.0 mph 5.0 mph 76% 0.00 in 0 W/m2
05:59 41.5 °F 33.5 °F 30.13 in South 3.0 mph 3.0 mph 73% 0.00 in 0 W/m2
06:22 42.1 °F 33.4 °F 30.11 in SSE 3.0 mph 5.0 mph 71% 0.00 in 0 W/m2
06:28 42.4 °F 33.7 °F 30.13 in South 3.0 mph 5.0 mph 71% 0.00 in 0 W/m2
06:33 42.5 °F 33.4 °F 30.13 in South 2.0 mph 3.0 mph 70% 0.00 in 0 W/m2
06:39 42.7 °F 33.6 °F 30.13 in South 1.0 mph 1.0 mph 70% 0.00 in 0 W/m2
06:46 42.3 °F 33.2 °F 30.12 in South 1.0 mph 1.0 mph 70% 0.00 in 0 W/m2
06:52 41.8 °F 33.4 °F 30.13 in Calm     72% 0.00 in 0 W/m2
06:58 41.4 °F 33.4 °F 30.13 in Calm   1.0 mph 73% 0.00 in 0 W/m2
07:04 40.3 °F 33.3 °F 30.13 in Calm   1.0 mph 76% 0.00 in 0 W/m2
07:10 39.9 °F 33.9 °F 30.12 in South 1.0 mph 1.0 mph 79% 0.00 in 0 W/m2
07:15 39.7 °F 34.0 °F 30.13 in South 1.0 mph 1.0 mph 80% 0.00 in 0 W/m2
07:22 39.7 °F 34.0 °F 30.13 in Calm     80% 0.00 in 0 W/m2
07:28 38.7 °F 33.4 °F 30.13 in Calm     81% 0.00 in 0 W/m2
07:40 38.1 °F 33.4 °F 30.13 in Calm     83% 0.00 in 0 W/m2
07:45 38.0 °F 33.6 °F 30.13 in Calm   1.0 mph 84% 0.00 in 0 W/m2
07:52 39.6 °F 35.2 °F 30.13 in SE 1.0 mph 2.0 mph 84% 0.00 in 0 W/m2
07:58 41.1 °F 35.7 °F 30.13 in SE 2.0 mph 3.0 mph 81% 0.00 in 5 W/m2
08:03 42.4 °F 36.0 °F 30.13 in SE 2.0 mph 3.0 mph 78% 0.00 in 7 W/m2
08:15 42.7 °F 35.3 °F 30.13 in SE 2.0 mph 4.0 mph 75% 0.00 in 12 W/m2
08:22 43.0 °F 35.6 °F 30.13 in SE 2.0 mph 2.0 mph 75% 0.00 in 18 W/m2
08:28 43.2 °F 35.5 °F 30.13 in ESE 1.0 mph 2.0 mph 74% 0.00 in 19 W/m2
08:33 42.6 °F 34.9 °F 30.13 in ESE 1.0 mph 1.0 mph 74% 0.00 in 19 W/m2
08:39 42.4 °F 35.0 °F 30.13 in Calm   1.0 mph 75% 0.00 in 25 W/m2
08:46 42.2 °F 35.2 °F 30.13 in Calm   1.0 mph 76% 0.00 in 33 W/m2
08:52 42.1 °F 35.1 °F 30.14 in Calm     76% 0.00 in 26 W/m2
09:00 42.2 °F 35.5 °F 30.14 in Calm     77% 0.00 in 40 W/m2
09:06 42.1 °F 35.4 °F 30.14 in Calm     77% 0.00 in 65 W/m2
09:12 42.3 °F 35.6 °F 30.14 in Calm     77% 0.00 in 79 W/m2
09:18 42.6 °F 35.9 °F 30.14 in Calm   2.0 mph 77% 0.00 in 74 W/m2
09:23 43.5 °F 36.4 °F 30.13 in ESE 1.0 mph 3.0 mph 76% 0.00 in 83 W/m2
09:36 44.6 °F 36.5 °F 30.14 in ESE 1.0 mph 3.0 mph 73% 0.00 in 79 W/m2
09:42 45.1 °F 36.3 °F 30.14 in SSE 1.0 mph 1.0 mph 71% 0.00 in 77 W/m2
09:59 45.7 °F 36.5 °F 30.14 in SE 1.0 mph 1.0 mph 70% 0.00 in 104 W/m2
10:05 45.6 °F 36.4 °F 30.14 in Calm   2.0 mph 70% 0.00 in 137 W/m2
10:12 46.1 °F 36.5 °F 30.14 in SSE 1.0 mph 1.0 mph 69% 0.00 in 172 W/m2
10:18 46.8 °F 36.8 °F 30.14 in SSE 2.0 mph 4.0 mph 68% 0.00 in 167 W/m2
10:22 47.1 °F 36.7 °F 30.14 in SE 2.0 mph 3.0 mph 67% 0.00 in 243 W/m2
10:28 47.8 °F 37.0 °F 30.14 in SE 3.0 mph 5.0 mph 66% 0.00 in 243 W/m2
10:34 48.1 °F 36.9 °F 30.14 in South 3.0 mph 4.0 mph 65% 0.00 in 220 W/m2
10:46 49.0 °F 37.3 °F 30.13 in SSE 3.0 mph 5.0 mph 64% 0.00 in 265 W/m2
10:52 49.3 °F 37.6 °F 30.13 in SSE 3.0 mph 5.0 mph 64% 0.00 in 225 W/m2
10:58 49.4 °F 37.7 °F 30.13 in SE 3.0 mph 5.0 mph 64% 0.00 in 185 W/m2
11:03 49.2 °F 37.5 °F 30.13 in SSE 4.0 mph 5.0 mph 64% 0.00 in 144 W/m2
11:10 49.6 °F 37.9 °F 30.13 in SSE 3.0 mph 3.0 mph 64% 0.00 in 169 W/m2
11:15 49.7 °F 38.0 °F 30.12 in SSE 3.0 mph 5.0 mph 64% 0.00 in 148 W/m2
11:22 49.7 °F 38.0 °F 30.12 in SSE 2.0 mph 3.0 mph 64% 0.00 in 142 W/m2
11:30 49.9 °F 38.2 °F 30.11 in South 3.0 mph 3.0 mph 64% 0.00 in 141 W/m2
11:35 50.2 °F 38.5 °F 30.11 in SE 3.0 mph 5.0 mph 64% 0.00 in 144 W/m2
11:43 50.5 °F 38.4 °F 30.11 in SW 3.0 mph 6.0 mph 63% 0.00 in 160 W/m2
11:49 50.8 °F 39.1 °F 30.11 in South 3.0 mph 3.0 mph 64% 0.00 in 160 W/m2
11:56 51.1 °F 38.9 °F 30.10 in SSE 3.0 mph 5.0 mph 63% 0.00 in 179 W/m2
12:03 51.6 °F 39.4 °F 30.09 in SW 3.0 mph 5.0 mph 63% 0.00 in 260 W/m2
12:10 51.9 °F 39.3 °F 30.09 in South 3.0 mph 4.0 mph 62% 0.00 in 241 W/m2
12:15 52.2 °F 39.6 °F 30.09 in South 4.0 mph 5.0 mph 62% 0.00 in 253 W/m2
12:22 52.0 °F 39.4 °F 30.08 in South 5.0 mph 5.0 mph 62% 0.00 in 295 W/m2
12:33 52.6 °F 39.5 °F 30.08 in SE 4.0 mph 4.0 mph 61% 0.00 in 260 W/m2
12:40 52.7 °F 39.6 °F 30.07 in SSE 4.0 mph 7.0 mph 61% 0.00 in 244 W/m2
12:45 52.8 °F 39.7 °F 30.08 in SSE 5.0 mph 9.0 mph 61% 0.00 in 250 W/m2
12:52 53.1 °F 40.0 °F 30.07 in SE 4.0 mph 4.0 mph 61% 0.00 in 232 W/m2
12:58 53.0 °F 39.9 °F 30.07 in South 3.0 mph 4.0 mph 61% 0.00 in 244 W/m2
13:06 53.2 °F 40.5 °F 30.07 in SSE 4.0 mph 7.0 mph 62% 0.00 in 272 W/m2
13:12 53.7 °F 40.6 °F 30.06 in SSE 5.0 mph 5.0 mph 61% 0.00 in 209 W/m2
13:18 53.5 °F 40.4 °F 30.06 in South 4.0 mph 7.0 mph 61% 0.00 in 185 W/m2
13:24 53.7 °F 40.6 °F 30.06 in South 4.0 mph 5.0 mph 61% 0.00 in 179 W/m2
13:29 53.7 °F 41.0 °F 30.06 in SSE 4.0 mph 5.0 mph 62% 0.00 in 165 W/m2
13:35 53.8 °F 41.1 °F 30.06 in South 4.0 mph 5.0 mph 62% 0.00 in 158 W/m2
13:42 53.7 °F 41.0 °F 30.06 in SSE 3.0 mph 3.0 mph 62% 0.00 in 144 W/m2
13:49 53.6 °F 40.9 °F 30.05 in South 3.0 mph 3.0 mph 62% 0.00 in 127 W/m2
13:56 53.5 °F 40.8 °F 30.06 in South 3.0 mph 3.0 mph 62% 0.00 in 102 W/m2
14:02 53.3 °F 40.6 °F 30.05 in SE 2.0 mph 2.0 mph 62% 0.00 in 86 W/m2
14:15 53.0 °F 41.1 °F 30.05 in SE 3.0 mph 3.0 mph 64% 0.00 in 91 W/m2
14:22 53.5 °F 41.6 °F 30.04 in SSW 3.0 mph 7.0 mph 64% 0.00 in 86 W/m2
14:28 54.0 °F 42.1 °F 30.04 in South 4.0 mph 6.0 mph 64% 0.00 in 72 W/m2
14:33 54.1 °F 41.8 °F 30.04 in SSW 5.0 mph 8.0 mph 63% 0.00 in 79 W/m2
14:40 53.9 °F 42.0 °F 30.04 in SE 4.0 mph 5.0 mph 64% 0.00 in 93 W/m2
14:46 54.2 °F 42.3 °F 30.04 in SW 5.0 mph 5.0 mph 64% 0.00 in 100 W/m2
14:52 54.2 °F 42.3 °F 30.04 in SSW 5.0 mph 5.0 mph 64% 0.00 in 86 W/m2
14:58 54.2 °F 42.3 °F 30.03 in South 4.0 mph 5.0 mph 64% 0.00 in 90 W/m2
15:06 54.4 °F 42.5 °F 30.03 in SSW 5.0 mph 8.0 mph 64% 0.00 in 67 W/m2
15:12 54.1 °F 42.2 °F 30.03 in SSE 5.0 mph 6.0 mph 64% 0.00 in 67 W/m2
15:18 53.8 °F 42.3 °F 30.03 in SW 2.0 mph 6.0 mph 65% 0.00 in 81 W/m2
15:24 54.0 °F 42.9 °F 30.03 in WSW 2.0 mph 2.0 mph 66% 0.00 in 65 W/m2
15:29 54.1 °F 42.6 °F 30.03 in SSE 3.0 mph 3.0 mph 65% 0.00 in 72 W/m2
15:36 53.7 °F 42.6 °F 30.03 in South 3.0 mph 3.0 mph 66% 0.00 in 51 W/m2
15:42 53.5 °F 42.4 °F 30.03 in South 2.0 mph 3.0 mph 66% 0.00 in 44 W/m2
15:48 53.8 °F 42.7 °F 30.03 in South 3.0 mph 3.0 mph 66% 0.00 in 46 W/m2
15:53 53.6 °F 42.5 °F 30.03 in SE 2.0 mph 4.0 mph 66% 0.00 in 44 W/m2
16:00 53.7 °F 43.0 °F 30.03 in SE 1.0 mph 3.0 mph 67% 0.00 in 39 W/m2
16:06 53.7 °F 43.4 °F 30.03 in SSE 2.0 mph 4.0 mph 68% 0.00 in 28 W/m2
16:12 53.7 °F 43.0 °F 30.03 in South 3.0 mph 3.0 mph 67% 0.00 in 23 W/m2
16:18 53.5 °F 43.2 °F 30.03 in SSE 3.0 mph 4.0 mph 68% 0.00 in 21 W/m2
16:23 53.8 °F 43.9 °F 30.03 in SE 3.0 mph 5.0 mph 69% 0.00 in 18 W/m2
16:30 54.2 °F 43.9 °F 30.03 in South 4.0 mph 4.0 mph 68% 0.00 in 12 W/m2
16:35 54.1 °F 43.8 °F 30.03 in South 5.0 mph 5.0 mph 68% 0.00 in 9 W/m2
16:42 53.8 °F 43.9 °F 30.02 in SSE 4.0 mph 4.0 mph 69% 0.00 in 0 W/m2
16:48 53.2 °F 43.3 °F 30.01 in SSE 3.0 mph 6.0 mph 69% 0.00 in 0 W/m2
16:53 53.2 °F 43.7 °F 30.01 in SSE 3.0 mph 4.0 mph 70% 0.00 in 0 W/m2
17:05 53.2 °F 43.7 °F 30.01 in South 4.0 mph 6.0 mph 70% 0.00 in 0 W/m2
17:12 53.2 °F 44.0 °F 30.01 in SSE 3.0 mph 4.0 mph 71% 0.00 in 0 W/m2
17:18 53.3 °F 44.5 °F 30.01 in SSE 3.0 mph 4.0 mph 72% 0.00 in 0 W/m2
17:23 53.5 °F 44.7 °F 30.01 in SSW 3.0 mph 4.0 mph 72% 0.00 in 0 W/m2
17:30 53.2 °F 44.4 °F 30.00 in SSW 3.0 mph 6.0 mph 72% 0.00 in 0 W/m2
17:35 53.4 °F 45.0 °F 30.00 in SSW 3.0 mph 6.0 mph 73% 0.00 in 0 W/m2
17:42 53.4 °F 45.0 °F 30.00 in South 4.0 mph 9.0 mph 73% 0.00 in 0 W/m2
17:48 53.7 °F 45.6 °F 30.00 in South 5.0 mph 9.0 mph 74% 0.00 in 0 W/m2
17:55 53.8 °F 45.7 °F 29.99 in SSE 6.0 mph 9.0 mph 74% 0.00 in 0 W/m2
18:02 53.9 °F 46.2 °F 29.98 in South 6.0 mph 8.0 mph 75% 0.00 in 0 W/m2
18:08 54.1 °F 46.0 °F 29.98 in South 7.0 mph 8.0 mph 74% 0.00 in 0 W/m2
18:14 53.8 °F 45.7 °F 29.98 in SSE 7.0 mph 13.0 mph 74% 0.00 in 0 W/m2
18:18 53.9 °F 46.2 °F 29.98 in South 7.0 mph 13.0 mph 75% 0.00 in 0 W/m2
18:25 54.1 °F 46.0 °F 29.98 in SSW 9.0 mph 10.0 mph 74% 0.00 in 0 W/m2
18:32 53.9 °F 46.2 °F 29.98 in South 8.0 mph 9.0 mph 75% 0.00 in 0 W/m2
18:38 54.0 °F 46.3 °F 29.98 in SSE 8.0 mph 16.0 mph 75% 0.00 in 0 W/m2
18:40 54.0 °F 46.3 °F 29.98 in SSW 8.0 mph 8.0 mph 75% 0.00 in 0 W/m2
18:50 53.7 °F 46.3 °F 29.99 in SW 5.0 mph 9.0 mph 76% 0.00 in 0 W/m2
18:52 54.0 °F 47.0 °F 29.98 in South 6.0 mph 9.0 mph 77% 0.00 in 0 W/m2
18:58 54.0 °F 46.6 °F 29.98 in SSW 7.0 mph 16.0 mph 76% 0.00 in 0 W/m2
19:04 54.0 °F 46.6 °F 29.98 in SSE 7.0 mph 8.0 mph 76% 0.00 in 0 W/m2
19:10 53.8 °F 46.8 °F 29.98 in SSW 6.0 mph 9.0 mph 77% 0.00 in 0 W/m2
19:15 54.0 °F 47.0 °F 29.98 in SW 6.0 mph 9.0 mph 77% 0.00 in 0 W/m2
19:18 53.9 °F 46.5 °F 29.98 in South 6.0 mph 9.0 mph 76% 0.00 in 0 W/m2
19:23 54.1 °F 47.0 °F 29.98 in South 6.0 mph 7.0 mph 77% 0.00 in 0 W/m2
19:30 54.2 °F 47.1 °F 29.97 in South 6.0 mph 6.0 mph 77% 0.00 in 0 W/m2
19:36 54.0 °F 47.3 °F 29.97 in SSW 6.0 mph 7.0 mph 78% 0.00 in 0 W/m2
19:42 54.2 °F 47.1 °F 29.97 in SSW 6.0 mph 6.0 mph 77% 0.00 in 0 W/m2
19:48 54.2 °F 47.5 °F 29.97 in SSE 6.0 mph 10.0 mph 78% 0.00 in 0 W/m2
19:54 54.3 °F 47.2 °F 29.96 in SSE 7.0 mph 7.0 mph 77% 0.00 in 0 W/m2
19:59 54.2 °F 47.5 °F 29.97 in SSE 7.0 mph 7.0 mph 78% 0.00 in 0 W/m2
20:05 54.3 °F 47.2 °F 29.97 in SSE 7.0 mph 8.0 mph 77% 0.00 in 0 W/m2
20:12 54.2 °F 47.1 °F 29.97 in South 7.0 mph 7.0 mph 77% 0.00 in 0 W/m2
20:18 53.9 °F 46.9 °F 29.97 in SSW 6.0 mph 7.0 mph 77% 0.00 in 0 W/m2
20:24 53.9 °F 47.2 °F 29.97 in SW 5.0 mph 7.0 mph 78% 0.00 in 0 W/m2
20:28 54.1 °F 47.4 °F 29.97 in SSE 5.0 mph 7.0 mph 78% 0.00 in 0 W/m2
20:33 53.8 °F 46.8 °F 29.96 in South 5.0 mph 5.0 mph 77% 0.00 in 0 W/m2
20:40 53.7 °F 47.3 °F 29.96 in SSE 4.0 mph 4.0 mph 79% 0.00 in 0 W/m2
20:46 54.2 °F 47.5 °F 29.96 in SSW 5.0 mph 11.0 mph 78% 0.00 in 0 W/m2
20:52 54.3 °F 47.6 °F 29.96 in South 5.0 mph 5.0 mph 78% 0.00 in 0 W/m2
20:58 54.3 °F 47.6 °F 29.95 in South 5.0 mph 8.0 mph 78% 0.00 in 0 W/m2
21:08 53.6 °F 46.9 °F 29.96 in SSE 3.0 mph 5.0 mph 78% 0.00 in 0 W/m2
21:13 53.4 °F 46.7 °F 29.96 in South 3.0 mph 6.0 mph 78% 0.00 in 0 W/m2
21:19 53.1 °F 46.4 °F 29.96 in South 3.0 mph 3.0 mph 78% 0.00 in 0 W/m2
21:32 52.7 °F 46.4 °F 29.96 in South 3.0 mph 4.0 mph 79% 0.00 in 0 W/m2
21:43 52.4 °F 46.4 °F 29.96 in SSW 2.0 mph 2.0 mph 80% 0.00 in 0 W/m2
21:50 52.6 °F 46.3 °F 29.96 in SSW 2.0 mph 3.0 mph 79% 0.00 in 0 W/m2
21:56 53.2 °F 47.2 °F 29.97 in SSW 3.0 mph 3.0 mph 80% 0.00 in 0 W/m2
22:02 53.8 °F 47.1 °F 29.97 in SSW 3.0 mph 3.0 mph 78% 0.00 in 0 W/m2
22:13 53.8 °F 47.1 °F 29.96 in SW 3.0 mph 6.0 mph 78% 0.00 in 0 W/m2
22:20 54.1 °F 47.4 °F 29.96 in SW 3.0 mph 3.0 mph 78% 0.00 in 0 W/m2
22:25 54.3 °F 47.6 °F 29.96 in South 4.0 mph 7.0 mph 78% 0.00 in 0 W/m2
22:32 54.5 °F 47.8 °F 29.95 in SSE 5.0 mph 5.0 mph 78% 0.00 in 0 W/m2
22:38 54.2 °F 47.8 °F 29.95 in SSW 5.0 mph 8.0 mph 79% 0.00 in 0 W/m2
22:44 53.9 °F 47.9 °F 29.94 in South 5.0 mph 8.0 mph 80% 0.00 in 0 W/m2
22:49 53.8 °F 48.1 °F 29.94 in SSW 5.0 mph 5.0 mph 81% 0.00 in 0 W/m2
22:56 53.7 °F 48.0 °F 29.93 in SSW 5.0 mph 5.0 mph 81% 0.04 in 0 W/m2
23:08 53.2 °F 48.2 °F 29.93 in SSE 3.0 mph 6.0 mph 83% 0.06 in 0 W/m2
23:14 52.9 °F 48.2 °F 29.93 in SSW 2.0 mph 3.0 mph 84% 0.05 in 0 W/m2
23:19 52.1 °F 47.7 °F 29.92 in SSE 3.0 mph 3.0 mph 85% 0.00 in 0 W/m2
23:26 52.2 °F 48.1 °F 29.92 in SSE 2.0 mph 3.0 mph 86% 0.00 in 0 W/m2
23:32 52.1 °F 48.0 °F 29.92 in SSE 1.0 mph 1.0 mph 86% 0.06 in 0 W/m2
23:38 51.7 °F 47.6 °F 29.91 in SSE 2.0 mph 2.0 mph 86% 0.06 in 0 W/m2
23:44 51.6 °F 47.9 °F 29.91 in SSE 2.0 mph 2.0 mph 87% 0.04 in 0 W/m2
23:50 51.7 °F 48.3 °F 29.90 in SSE 2.0 mph 3.0 mph 88% 0.00 in 0 W/m2
23:55 51.9 °F 48.5 °F 29.90 in SSE 2.0 mph 3.0 mph 88% 0.11 in 0 W/m2
Country Meadow, Clay, NY, USA
Compliments of Weather Underground - 2 mb